Time;durP1;ratioP1;P1;durP2;ratioP2;P2;SDS_P1;SDS_P2;PMS_P1;PMS_P2;Temp;Humidity;BMP_temperature;BMP_pressure;BME280_temperature;BME280_humidity;BME280_pressure;Samples;Min_cycle;Max_cycle;Signal;HPM_P1;HPM_P2
2021/05/18 00:01:06;;;;;;;4.97;3.58;;;;;;;9.14;100.00;99866.44;5025033;28;20053;-69
2021/05/18 00:03:33;;;;;;;7.82;3.67;;;;;;;9.15;100.00;99864.66;5022433;28;20138;-70
2021/05/18 00:06:01;;;;;;;7.55;3.90;;;;;;;9.41;100.00;99868.19;5011916;28;20049;-70
2021/05/18 00:08:30;;;;;;;5.40;3.40;;;;;;;9.17;100.00;99866.22;5030376;28;20054;-71
2021/05/18 00:13:51;;;;;;;5.72;3.60;;;;;;;9.29;100.00;99873.31;5014526;28;20456;-71
2021/05/18 00:16:19;;;;;;;4.97;3.60;;;;;;;9.13;100.00;99870.84;5006602;28;20084;-72
2021/05/18 00:18:46;;;;;;;8.10;3.90;;;;;;;9.20;100.00;99873.06;5010206;28;20069;-71
2021/05/18 00:21:13;;;;;;;4.50;3.67;;;;;;;9.07;100.00;99876.50;5008150;28;20071;-70
2021/05/18 00:23:41;;;;;;;6.38;4.07;;;;;;;9.01;100.00;99881.31;5006170;28;20490;-70
2021/05/18 00:26:09;;;;;;;5.72;3.60;;;;;;;9.34;100.00;99880.88;5016016;28;20120;-71
2021/05/18 00:28:36;;;;;;;5.82;3.58;;;;;;;9.41;100.00;99878.69;4996515;28;20041;-70
2021/05/18 00:31:04;;;;;;;3.55;2.83;;;;;;;9.57;100.00;99880.22;5019517;28;20136;-72
2021/05/18 00:33:32;;;;;;;4.60;3.10;;;;;;;9.45;100.00;99885.44;5027372;28;20053;-71
2021/05/18 00:36:01;;;;;;;6.20;3.17;;;;;;;9.43;100.00;99884.69;5002892;28;20330;-71
2021/05/18 00:38:28;;;;;;;5.47;2.92;;;;;;;9.46;100.00;99879.25;5030460;28;20439;-72
2021/05/18 00:40:55;;;;;;;5.07;3.15;;;;;;;9.35;100.00;99874.69;5004189;28;20072;-71
2021/05/18 00:43:23;;;;;;;5.22;3.03;;;;;;;9.26;100.00;99876.13;5012339;28;20128;-71
2021/05/18 00:45:50;;;;;;;3.42;2.55;;;;;;;9.33;100.00;99881.84;5020304;28;20064;-71
2021/05/18 00:48:19;;;;;;;3.70;2.42;;;;;;;9.28;100.00;99876.88;5007019;28;20053;-70
2021/05/18 00:50:49;;;;;;;5.07;2.70;;;;;;;9.19;100.00;99880.13;5011317;28;20343;-71
2021/05/18 00:53:17;;;;;;;3.65;2.75;;;;;;;9.27;100.00;99879.59;5025118;28;20468;-70
2021/05/18 00:55:51;;;;;;;5.13;2.67;;;;;;;9.19;100.00;99871.41;4996853;28;20117;-71
2021/05/18 00:58:33;;;;;;;2.90;2.35;;;;;;;9.22;100.00;99873.81;5006597;28;20151;-71
2021/05/18 01:01:11;;;;;;;3.20;2.45;;;;;;;9.35;100.00;99880.78;4996429;28;20107;-70
2021/05/18 01:03:38;;;;;;;5.50;2.30;;;;;;;9.50;100.00;99883.34;5017815;28;20523;-71
2021/05/18 01:08:55;;;;;;;6.40;1.75;;;;;;;9.35;100.00;99888.66;5004833;28;20054;-71
2021/05/18 01:11:25;;;;;;;2.63;2.33;;;;;;;9.33;100.00;99882.69;5004227;28;20050;-72
2021/05/18 01:13:58;;;;;;;2.45;1.92;;;;;;;9.33;100.00;99887.09;5009303;28;20033;-71
2021/05/18 01:16:27;;;;;;;2.17;1.73;;;;;;;9.53;100.00;99893.66;5001224;28;20106;-70
2021/05/18 01:18:54;;;;;;;5.22;2.28;;;;;;;9.34;100.00;99897.50;5052484;22;20128;-69
2021/05/18 01:21:24;;;;;;;2.15;1.63;;;;;;;9.34;100.00;99897.50;5046329;28;20057;-70
2021/05/18 01:24:00;;;;;;;4.25;1.80;;;;;;;9.46;100.00;99906.38;5059421;28;20060;-70
2021/05/18 01:26:29;;;;;;;3.58;1.70;;;;;;;9.45;100.00;99914.31;5045285;28;20045;-70
2021/05/18 01:28:57;;;;;;;3.55;1.58;;;;;;;9.51;100.00;99911.31;5023095;28;20076;-70
2021/05/18 01:31:25;;;;;;;3.55;2.00;;;;;;;9.52;100.00;99916.47;5049663;28;20167;-71
2021/05/18 01:33:54;;;;;;;2.45;1.52;;;;;;;9.44;100.00;99918.75;5034911;28;20049;-69
2021/05/18 01:36:22;;;;;;;2.80;1.70;;;;;;;9.51;99.93;99922.66;5043196;28;20068;-70
2021/05/18 01:39:26;;;;;;;3.55;2.22;;;;;;;9.57;99.15;99929.28;5033146;28;20503;-71
2021/05/18 01:44:39;;;;;;;2.60;1.60;;;;;;;9.69;97.91;99927.66;5040303;28;20422;-70
2021/05/18 01:47:09;;;;;;;2.67;1.75;;;;;;;9.70;97.94;99931.97;5036555;28;20499;-70
2021/05/18 01:49:36;;;;;;;3.35;1.83;;;;;;;9.49;98.51;99929.78;5041840;28;20049;-70
2021/05/18 01:52:04;;;;;;;3.45;1.45;;;;;;;9.42;99.10;99932.94;5039689;28;20048;-70
2021/05/18 01:54:34;;;;;;;2.90;1.95;;;;;;;9.52;99.31;99934.84;5027901;28;20137;-72
2021/05/18 01:57:19;;;;;;;2.33;1.38;;;;;;;9.33;99.86;99939.63;5028423;28;20403;-73
2021/05/18 01:59:48;;;;;;;;;;;;;;;9.25;100.00;99939.28;5023723;28;20060;-73
2021/05/18 02:02:15;;;;;;;4.32;2.05;;;;;;;9.16;100.00;99945.13;5040492;28;19927;-74
2021/05/18 02:04:56;;;;;;;3.65;1.90;;;;;;;9.13;100.00;99946.97;5021121;28;20055;-73
2021/05/18 02:07:29;;;;;;;3.22;1.65;;;;;;;9.18;100.00;99946.69;5044038;28;20049;-73
2021/05/18 02:09:57;;;;;;;2.80;1.60;;;;;;;9.13;100.00;99943.50;5039234;28;20128;-74
2021/05/18 02:12:24;;;;;;;3.45;1.63;;;;;;;9.23;100.00;99951.66;5004584;28;20053;-73
2021/05/18 02:15:04;;;;;;;4.28;2.13;;;;;;;9.24;100.00;99946.31;5012209;28;20033;-73
2021/05/18 02:17:36;;;;;;;2.97;1.65;;;;;;;9.25;100.00;99960.28;5029965;28;20049;-72
2021/05/18 02:20:26;;;;;;;2.65;1.80;;;;;;;9.39;99.77;99960.22;5035711;28;20128;-73
2021/05/18 02:25:39;;;;;;;2.10;1.55;;;;;;;9.48;99.04;99964.06;5034668;28;20135;-73
2021/05/18 02:28:08;;;;;;;4.03;1.60;;;;;;;9.47;98.70;99968.47;5042980;28;20056;-72
2021/05/18 02:30:37;;;;;;;2.63;1.90;;;;;;;9.49;98.13;99968.34;5013505;28;20041;-74
2021/05/18 02:33:04;;;;;;;2.70;1.67;;;;;;;9.52;97.38;99966.38;5042310;28;20481;-73
2021/05/18 02:35:32;;;;;;;4.57;2.15;;;;;;;9.47;98.12;99971.09;5018805;28;20045;-73
2021/05/18 02:38:00;;;;;;;3.08;1.70;;;;;;;9.47;97.57;99968.47;5034816;28;20056;-72
2021/05/18 02:40:30;;;;;;;3.40;2.17;;;;;;;9.43;98.16;99966.13;5032059;28;20096;-72
2021/05/18 02:42:57;;;;;;;2.88;1.88;;;;;;;9.54;97.52;99972.38;5024687;28;20140;-73
2021/05/18 02:50:43;;;;;;;2.95;1.90;;;;;;;9.36;98.12;99979.66;5029176;28;20045;-70
2021/05/18 02:53:11;;;;;;;3.38;1.73;;;;;;;9.29;98.47;99974.91;5034399;28;20045;-72
2021/05/18 02:58:26;;;;;;;3.28;1.88;;;;;;;9.42;97.65;99982.84;5030447;28;20037;-72
2021/05/18 03:00:53;;;;;;;2.92;1.70;;;;;;;9.43;97.78;99977.50;5035238;28;20053;-70
2021/05/18 03:03:20;;;;;;;2.40;1.73;;;;;;;9.57;96.45;99982.69;5041700;28;20136;-71
2021/05/18 03:05:47;;;;;;;4.55;1.95;;;;;;;9.57;96.60;99987.09;5032875;28;20068;-72
2021/05/18 03:08:14;;;;;;;3.85;2.10;;;;;;;9.51;96.26;99995.41;5040787;28;20076;-70
2021/05/18 03:10:42;;;;;;;2.85;1.90;;;;;;;9.39;97.35;99995.22;5037451;28;20049;-73
2021/05/18 03:13:09;;;;;;;2.80;1.90;;;;;;;9.29;98.51;99996.75;5041787;28;20076;-73
2021/05/18 03:15:36;;;;;;;4.47;1.83;;;;;;;9.26;98.19;99993.47;5030608;28;20108;-72
2021/05/18 03:18:04;;;;;;;2.83;1.90;;;;;;;9.28;98.86;99996.88;5014529;28;20430;-72
2021/05/18 03:20:31;;;;;;;3.58;1.90;;;;;;;9.38;97.97;100000.59;5009541;28;21257;-73
2021/05/18 03:22:59;;;;;;;5.35;2.58;;;;;;;9.49;97.15;100003.34;5026796;28;20076;-74
2021/05/18 03:25:26;;;;;;;4.82;2.17;;;;;;;9.36;97.52;100000.66;5031489;28;20530;-74
2021/05/18 03:27:57;;;;;;;4.72;1.83;;;;;;;9.32;98.59;100006.22;5037675;28;20132;-75
2021/05/18 03:35:38;;;;;;;4.53;2.28;;;;;;;9.59;96.10;100008.84;5023849;28;20164;-75
2021/05/18 03:38:14;;;;;;;4.63;1.92;;;;;;;9.56;96.53;100012.53;5000641;28;20529;-74
2021/05/18 03:40:48;;;;;;;3.85;2.42;;;;;;;9.56;96.31;100014.34;5030137;28;20060;-73
2021/05/18 03:43:41;;;;;;;4.15;2.25;;;;;;;9.66;95.78;100017.19;5032740;28;20132;-76
2021/05/18 03:54:44;;;;;;;3.28;1.65;;;;;;;10.25;91.70;100028.22;4994088;28;20263;-74
2021/05/18 04:18:53;;;;;;;3.10;2.45;;;;;;;11.83;83.61;100047.00;5032839;28;20788;-71
2021/05/18 04:26:46;;;;;;;5.82;2.53;;;;;;;12.27;80.87;100048.13;5038031;28;20128;-72
2021/05/18 04:40:50;;;;;;;3.80;2.58;;;;;;;12.17;81.88;100061.19;5025606;28;20491;-70
2021/05/18 04:49:06;;;;;;;;;;;;;;;12.08;82.33;100072.41;5032000;28;20180;-71
2021/05/18 04:51:41;;;;;;;4.55;3.20;;;;;;;11.94;83.56;100078.72;5036096;28;20201;-71
2021/05/18 04:54:28;;;;;;;6.68;3.45;;;;;;;11.87;84.15;100082.75;5047631;28;20093;-72
2021/05/18 05:08:11;;;;;;;5.85;3.90;;;;;;;12.35;82.20;100082.72;5024031;28;20049;-74
2021/05/18 05:15:43;;;;;;;7.95;3.65;;;;;;;12.70;81.02;100098.53;5022044;28;20547;-71
2021/05/18 05:18:11;;;;;;;6.88;4.70;;;;;;;12.62;80.66;100093.00;5017095;28;20068;-80
2021/05/18 05:20:38;;;;;;;12.77;3.90;;;;;;;12.38;82.42;100095.66;5035559;28;20580;-70
2021/05/18 05:23:06;;;;;;;6.65;4.43;;;;;;;12.13;85.68;100092.22;5038125;28;20045;-72
2021/05/18 05:25:33;;;;;;;7.15;4.40;;;;;;;11.85;89.00;100103.13;5007293;28;20137;-71
2021/05/18 05:28:00;;;;;;;8.15;4.57;;;;;;;11.83;90.08;100108.50;5027215;28;20068;-72
2021/05/18 05:30:27;;;;;;;8.88;4.32;;;;;;;11.69;91.48;100115.69;5027899;28;20111;-72
2021/05/18 05:32:54;;;;;;;8.45;4.40;;;;;;;11.58;91.59;100116.47;5028321;28;20122;-72
2021/05/18 05:35:22;;;;;;;6.47;4.40;;;;;;;11.53;93.05;100121.22;5027073;28;20081;-70
2021/05/18 05:37:49;;;;;;;7.32;3.95;;;;;;;11.57;92.32;100118.25;5036368;28;20184;-73
2021/05/18 05:40:18;;;;;;;8.07;4.57;;;;;;;11.58;93.21;100124.38;5025952;28;20081;-73
2021/05/18 05:42:45;;;;;;;7.80;4.80;;;;;;;11.71;92.32;100122.53;5032101;28;20163;-71
2021/05/18 05:45:12;;;;;;;5.07;4.35;;;;;;;11.91;91.32;100126.41;5033323;28;20057;-70
2021/05/18 05:47:40;;;;;;;8.75;5.03;;;;;;;12.05;90.65;100126.25;5026906;28;20748;-70
2021/05/18 05:50:08;;;;;;;6.40;5.13;;;;;;;11.76;90.70;100135.41;5016642;28;20095;-70
2021/05/18 05:52:36;;;;;;;7.30;4.63;;;;;;;11.99;89.82;100134.63;5032278;28;20116;-71
2021/05/18 05:55:04;;;;;;;6.30;5.22;;;;;;;12.19;88.75;100132.31;5030709;28;20084;-72
2021/05/18 05:57:31;;;;;;;5.20;4.57;;;;;;;12.10;88.81;100139.94;5026406;28;20403;-71
2021/05/18 05:59:58;;;;;;;5.80;4.70;;;;;;;12.21;88.42;100133.88;5031138;28;20053;-74
2021/05/18 06:02:25;;;;;;;6.53;5.30;;;;;;;12.47;88.02;100137.22;5030896;28;20491;-74
2021/05/18 06:04:52;;;;;;;8.07;4.63;;;;;;;12.61;86.82;100146.78;5040058;28;20136;-74
2021/05/18 06:07:20;;;;;;;8.60;5.25;;;;;;;12.66;85.87;100142.81;5036192;28;20060;-75
2021/05/18 06:09:50;;;;;;;7.05;5.22;;;;;;;12.79;85.78;100142.75;5034451;28;20051;-75
2021/05/18 06:12:27;;;;;;;5.85;4.75;;;;;;;13.08;84.08;100145.78;5034592;28;20435;-76
2021/05/18 06:42:17;;;;;;;;;;;;;;;14.15;78.30;100173.53;5031889;28;19994;-75
2021/05/18 06:47:34;;;;;;;;;;;;;;;14.64;75.75;100175.69;5035579;28;20408;-74
2021/05/18 06:52:42;;;;;;;;;;;;;;;13.61;79.26;100191.06;5042267;28;19936;-75
2021/05/18 06:55:11;;;;;;;;;;;;;;;13.99;78.33;100192.44;5033531;28;20011;-75
2021/05/18 06:57:42;;;;;;;;;;;;;;;14.29;76.84;100191.78;5034307;28;19931;-75
2021/05/18 07:00:11;;;;;;;;;;;;;;;14.39;76.03;100197.19;5028604;28;19989;-74
2021/05/18 07:02:39;;;;;;;;;;;;;;;14.40;74.78;100193.56;5050324;28;19920;-74
2021/05/18 07:05:13;;;;;;;;;;;;;;;14.33;75.26;100209.13;5028485;28;19986;-75
2021/05/18 07:07:40;;;;;;;;;;;;;;;14.30;75.44;100214.66;5037105;28;19920;-74
2021/05/18 07:10:07;;;;;;;;;;;;;;;13.88;76.58;100209.19;5031982;28;19963;-74
2021/05/18 07:12:36;;;;;;;;;;;;;;;14.18;76.84;100212.97;5037564;28;19927;-76
2021/05/18 07:15:04;;;;;;;;;;;;;;;14.75;73.85;100203.09;5017578;28;19921;-75
2021/05/18 07:17:31;;;;;;;;;;;;;;;14.76;73.45;100210.06;5036462;28;20048;-73
2021/05/18 07:20:13;;;;;;;;;;;;;;;14.62;73.92;100211.22;5028228;28;19928;-74
2021/05/18 07:22:40;;;;;;;;;;;;;;;14.57;73.41;100213.41;5044491;28;20437;-74
2021/05/18 07:25:07;;;;;;;;;;;;;;;14.28;75.63;100213.94;5045752;28;20015;-76
2021/05/18 07:27:34;;;;;;;;;;;;;;;14.29;74.80;100220.09;5038464;28;20389;-73
2021/05/18 07:30:02;;;;;;;;;;;;;;;13.85;76.49;100221.81;5015482;28;20023;-75
2021/05/18 07:32:29;;;;;;;;;;;;;;;14.05;76.59;100225.53;5037234;28;19921;-75
2021/05/18 07:34:56;;;;;;;;;;;;;;;14.01;76.24;100232.88;5044958;28;19974;-74
2021/05/18 07:37:23;;;;;;;;;;;;;;;14.18;74.32;100228.88;5034876;28;19924;-75
2021/05/18 07:39:50;;;;;;;;;;;;;;;14.22;73.79;100229.47;5043332;28;20000;-73
2021/05/18 07:42:17;;;;;;;;;;;;;;;14.51;72.66;100243.06;5045939;28;20374;-74
2021/05/18 07:44:45;;;;;;;;;;;;;;;14.25;74.11;100238.00;5024965;28;19921;-73
2021/05/18 07:47:14;;;;;;;;;;;;;;;14.51;73.08;100235.94;5025089;28;19936;-75
2021/05/18 07:49:47;;;;;;;;;;;;;;;13.79;74.99;100240.84;5036440;28;20355;-75
2021/05/18 08:06:16;;;;;;;;;;;;;;;13.92;75.65;100250.34;5030819;28;19928;-72
2021/05/18 08:08:44;;;;;;;;;;;;;;;14.02;75.57;100255.75;5026627;28;19924;-74
2021/05/18 08:11:11;;;;;;;;;;;;;;;14.75;72.41;100248.97;5033745;28;21082;-75
2021/05/18 08:13:53;;;;;;;;;;;;;;;14.69;72.06;100245.03;5041338;28;19925;-75
2021/05/18 08:19:11;;;;;;;;;;;;;;;13.74;76.01;100256.22;5033412;28;20015;-76
2021/05/18 08:47:25;;;;;;;;;;;;;;;12.58;81.36;100279.03;5038744;28;20015;-75
2021/05/18 09:36:17;;;;;;;;;;;;;;;14.35;73.70;100309.59;5037180;28;19924;-75
2021/05/18 10:38:42;;;;;;;;;;;;;;;15.36;64.86;100327.91;5035016;28;19947;-75
2021/05/18 10:41:10;;;;;;;;;;;;;;;15.52;64.28;100335.41;5032276;28;19987;-75
2021/05/18 10:43:37;;;;;;;;;;;;;;;15.53;63.83;100335.25;5047420;28;20414;-75
2021/05/18 10:46:08;;;;;;;;;;;;;;;15.42;63.80;100333.50;5035406;28;20298;-77
2021/05/18 10:48:35;;;;;;;;;;;;;;;15.00;66.22;100337.09;5038353;28;19920;-76
2021/05/18 10:51:36;;;;;;;;;;;;;;;14.28;68.58;100340.22;5036073;28;20012;-75
2021/05/18 10:54:18;;;;;;;;;;;;;;;14.39;69.09;100338.38;5035576;28;19925;-76
2021/05/18 10:57:01;;;;;;;;;;;;;;;14.18;69.50;100338.28;5064287;22;19932;-69
2021/05/18 10:59:37;;;;;;;;;;;;;;;14.31;69.55;100338.13;5032090;28;19928;-69
2021/05/18 11:02:05;;;;;;;;;;;;;;;14.26;70.12;100336.81;5035384;28;20148;-68
2021/05/18 11:04:51;;;;;;;;;;;;;;;14.68;68.54;100343.19;5049619;28;19970;-69
2021/05/18 11:07:20;;;;;;;;;;;;;;;14.64;68.86;100344.41;5053262;28;19920;-69
2021/05/18 11:09:48;;;;;;;;;;;;;;;14.21;70.38;100345.13;5065555;28;20050;-69
2021/05/18 11:12:15;;;;;;;;;;;;;;;13.57;72.62;100348.28;5035374;28;20079;-69
2021/05/18 11:14:57;;;;;;;;;;;;;;;14.23;70.70;100350.28;5067618;28;20010;-69
2021/05/18 11:17:24;;;;;;;;;;;;;;;14.91;67.59;100338.69;5045457;28;19959;-68
2021/05/18 11:19:54;;;;;;;;;;;;;;;15.74;64.16;100342.41;5063641;28;19963;-69
2021/05/18 11:25:07;;;;;;;;;;;;;;;15.16;64.88;100348.94;5048004;28;19943;-69
2021/05/18 11:27:34;;;;;;;;;;;;;;;15.26;63.13;100350.81;5045133;28;19920;-68
2021/05/18 11:30:01;;;;;;;;;;;;;;;15.38;62.98;100348.00;5067281;28;20023;-70
2021/05/18 11:32:28;;;;;;;;;;;;;;;15.07;65.85;100352.34;5054405;28;20403;-69
2021/05/18 11:34:58;;;;;;;;;;;;;;;15.24;65.20;100353.63;5071033;28;19952;-69
2021/05/18 11:37:25;;;;;;;;;;;;;;;15.90;62.76;100340.16;5046532;28;19920;-69
2021/05/18 11:40:07;;;;;;;;;;;;;;;16.43;59.47;100334.63;5067410;28;19967;-69
2021/05/18 11:42:34;;;;;;;;;;;;;;;16.02;60.63;100346.19;5055969;28;20386;-70
2021/05/18 11:45:05;;;;;;;;;;;;;;;15.79;60.83;100334.91;5049150;28;19925;-68
2021/05/18 11:47:33;;;;;;;;;;;;;;;15.98;61.36;100336.81;5041224;28;20015;-69
2021/05/18 11:50:00;;;;;;;;;;;;;;;16.34;59.49;100332.78;5031549;28;20235;-70
2021/05/18 11:52:34;;;;;;;;;;;;;;;16.69;58.08;100333.16;5046758;28;20537;-68
2021/05/18 11:55:01;;;;;;;;;;;;;;;16.18;58.46;100336.78;5033564;28;19960;-68
2021/05/18 11:57:27;;;;;;;;;;;;;;;16.00;60.13;100343.69;5048633;28;19968;-69
2021/05/18 11:59:55;;;;;;;;;;;;;;;15.76;60.78;100336.03;5030892;28;19990;-69
2021/05/18 12:02:22;;;;;;;;;;;;;;;16.92;58.08;100343.59;5044768;28;20321;-69
2021/05/18 12:04:51;;;;;;;;;;;;;;;16.67;57.64;100335.13;5064939;28;19955;-68
2021/05/18 12:07:18;;;;;;;;;;;;;;;16.15;60.29;100339.69;5044768;28;19920;-69
2021/05/18 12:09:47;;;;;;;;;;;;;;;16.51;57.79;100334.78;5060367;28;20491;-69
2021/05/18 12:12:15;;;;;;;;;;;;;;;16.61;57.40;100337.47;5048335;28;19951;-70
2021/05/18 12:14:43;;;;;;;;;;;;;;;16.32;56.88;100335.56;5028736;28;19920;-68
2021/05/18 12:17:10;;;;;;;;;;;;;;;16.18;58.14;100347.41;5080019;28;19926;-68
2021/05/18 12:19:39;;;;;;;;;;;;;;;16.94;56.35;100339.81;5067151;28;19963;-69
2021/05/18 12:22:07;;;;;;;;;;;;;;;17.40;54.22;100338.28;5068144;28;19927;-70
2021/05/18 12:24:38;;;;;;;;;;;;;;;18.04;52.76;100333.28;5053514;28;20011;-68
2021/05/18 12:27:05;;;;;;;;;;;;;;;17.45;53.85;100344.03;5042605;28;20358;-69
2021/05/18 12:29:37;;;;;;;;;;;;;;;16.92;56.02;100339.09;5066170;28;20008;-70
2021/05/18 12:32:13;;;;;;;;;;;;;;;17.28;55.88;100338.56;5052601;28;19920;-70
2021/05/18 12:34:40;;;;;;;;;;;;;;;16.65;56.28;100349.50;5084285;28;19956;-69
2021/05/18 12:37:07;;;;;;;;;;;;;;;16.18;58.39;100342.09;5074661;28;19920;-70
2021/05/18 12:39:37;;;;;;;;;;;;;;;16.58;57.99;100348.41;5048651;28;20394;-68
2021/05/18 12:42:04;;;;;;;;;;;;;;;16.60;57.15;100336.63;5066109;28;19921;-69
2021/05/18 12:44:48;;;;;;;;;;;;;;;17.05;55.67;100340.66;5048681;28;20019;-69
2021/05/18 12:47:24;;;;;;;;;;;;;;;17.25;54.98;100334.38;5064573;28;19960;-70
2021/05/18 12:49:52;;;;;;;;;;;;;;;17.22;55.57;100339.97;5048844;28;20011;-69
2021/05/18 12:52:23;;;;;;;;;;;;;;;17.13;54.45;100335.50;5073315;28;19924;-69
2021/05/18 12:54:52;;;;;;;;;;;;;;;16.38;56.22;100347.47;5064499;28;20010;-69
2021/05/18 12:57:20;;;;;;;;;;;;;;;16.39;56.78;100342.03;5063314;28;20270;-69
2021/05/18 13:00:07;;;;;;;;;;;;;;;15.78;58.98;100349.16;5068403;28;20404;-69
2021/05/18 13:02:38;;;;;;;;;;;;;;;15.82;58.68;100337.31;5043731;28;19981;-70
2021/05/18 13:05:05;;;;;;;;;;;;;;;15.48;59.31;100336.63;5073414;28;19920;-70
2021/05/18 13:07:32;;;;;;;;;;;;;;;15.34;60.52;100351.03;5068858;28;19928;-69
2021/05/18 13:10:08;;;;;;;;;;;;;;;15.27;59.76;100344.56;5035980;28;19965;-70
2021/05/18 13:12:35;;;;;;;;;;;;;;;15.07;60.34;100343.56;5069061;28;19921;-70
2021/05/18 13:15:13;;;;;;;;;;;;;;;15.36;59.84;100349.13;5024652;28;19927;-68
2021/05/18 13:17:59;;;;;;;;;;;;;;;15.34;60.15;100351.88;5067767;28;20336;-70
2021/05/18 13:20:43;;;;;;;;;;;;;;;15.46;59.66;100344.72;5066478;28;19924;-70
2021/05/18 13:28:47;;;;;;;;;;;;;;;15.30;60.01;100346.97;5069528;28;19974;-70
2021/05/18 13:31:14;;;;;;;;;;;;;;;15.32;59.87;100347.69;5063257;28;19921;-71
2021/05/18 13:33:41;;;;;;;;;;;;;;;15.22;61.12;100357.34;5065961;28;19936;-70
2021/05/18 13:36:08;;;;;;;;;;;;;;;15.75;59.54;100352.91;5050083;28;19920;-71
2021/05/18 13:38:36;;;;;;;;;;;;;;;15.83;58.90;100352.25;5048766;28;19928;-70
2021/05/18 13:41:03;;;;;;;;;;;;;;;15.90;58.47;100364.03;5063206;28;19936;-69
2021/05/18 13:43:32;;;;;;;;;;;;;;;15.71;59.36;100351.47;5049882;28;20023;-69
2021/05/18 13:46:00;;;;;;;;;;;;;;;15.78;58.39;100349.16;5047587;28;20024;-69
2021/05/18 13:48:27;;;;;;;;;;;;;;;16.16;56.29;100340.53;5036039;28;19928;-69
2021/05/18 13:50:54;;;;;;;;;;;;;;;16.23;56.16;100351.47;5045198;28;20015;-69
2021/05/18 13:53:38;;;;;;;;;;;;;;;16.66;55.31;100348.53;5069927;28;19943;-70
2021/05/18 13:56:05;;;;;;;;;;;;;;;16.97;54.26;100349.31;5031103;28;19981;-69
2021/05/18 13:58:32;;;;;;;;;;;;;;;16.29;54.68;100351.78;5047196;28;20039;-70
2021/05/18 14:00:59;;;;;;;;;;;;;;;16.14;56.10;100340.69;5065134;28;19932;-69
2021/05/18 14:03:26;;;;;;;;;;;;;;;16.54;54.94;100344.31;5065112;28;20035;-69
2021/05/18 14:05:53;;;;;;;;;;;;;;;16.27;54.13;100345.78;5047825;28;20395;-69
2021/05/18 14:08:28;;;;;;;;;;;;;;;15.74;55.44;100347.72;5043581;28;19924;-70
2021/05/18 14:10:59;;;;;;;;;;;;;;;15.76;56.40;100345.78;5064284;28;19920;-70
2021/05/18 14:13:28;;;;;;;;;;;;;;;16.00;55.65;100346.34;5062467;28;20003;-71
2021/05/18 14:15:55;;;;;;;;;;;;;;;16.09;56.22;100345.56;5051535;28;20030;-69
2021/05/18 14:18:22;;;;;;;;;;;;;;;16.37;55.23;100343.16;5082347;28;19931;-70
2021/05/18 14:20:49;;;;;;;;;;;;;;;16.33;54.99;100350.53;5080134;28;20458;-70
2021/05/18 14:23:20;;;;;;;;;;;;;;;16.02;55.43;100354.16;5070811;28;20020;-70
2021/05/18 14:25:47;;;;;;;;;;;;;;;15.64;56.19;100343.19;5075278;28;19956;-69
2021/05/18 14:28:32;;;;;;;;;;;;;;;15.74;56.60;100345.06;5068170;28;19924;-70
2021/05/18 14:30:59;;;;;;;;;;;;;;;15.58;55.97;100338.38;5049563;28;20367;-69
2021/05/18 14:33:26;;;;;;;;;;;;;;;15.72;56.36;100342.56;5055892;28;20702;-70
2021/05/18 14:35:53;;;;;;;;;;;;;;;15.68;54.80;100339.31;5050482;28;20023;-70
2021/05/18 14:38:23;;;;;;;;;;;;;;;15.87;54.61;100335.94;5067587;28;20321;-69
2021/05/18 14:46:13;;;;;;;;;;;;;;;15.92;53.87;100347.00;5051537;28;19920;-68
2021/05/18 14:54:32;;;;;;;;;;;;;;;16.73;51.85;100340.91;5052723;28;19942;-69
2021/05/18 14:56:59;;;;;;;;;;;;;;;16.79;51.07;100343.00;5069629;28;20426;-70
2021/05/18 14:59:26;;;;;;;;;;;;;;;16.91;50.50;100340.09;5053347;28;19988;-69
2021/05/18 15:01:53;;;;;;;;;;;;;;;16.69;50.80;100345.63;5033920;28;19959;-70
2021/05/18 15:04:20;;;;;;;;;;;;;;;16.57;51.77;100342.25;5067461;28;20477;-68
2021/05/18 15:06:47;;;;;;;;;;;;;;;16.28;52.40;100342.13;5049759;28;20019;-68
2021/05/18 15:09:14;;;;;;;;;;;;;;;16.65;51.80;100345.03;5059294;28;19963;-68
2021/05/18 15:11:41;;;;;;;;;;;;;;;16.90;51.84;100335.75;5065025;28;19928;-69
2021/05/18 15:14:09;;;;;;;;;;;;;;;16.54;51.13;100339.84;5048335;28;20029;-68
2021/05/18 15:16:36;;;;;;;;;;;;;;;16.50;52.21;100334.94;5049572;28;20019;-69
2021/05/18 15:19:08;;;;;;;;;;;;;;;16.76;51.15;100345.94;5065729;28;21006;-69
2021/05/18 15:21:35;;;;;;;;;;;;;;;16.93;50.16;100332.84;5062031;28;19932;-71
2021/05/18 15:24:03;;;;;;;;;;;;;;;16.74;50.51;100342.56;5056932;28;20018;-68
2021/05/18 15:26:30;;;;;;;;;;;;;;;16.66;50.77;100345.88;5072911;28;19924;-70
2021/05/18 15:28:57;;;;;;;;;;;;;;;16.54;49.78;100347.81;5084314;28;20540;-69
2021/05/18 15:31:24;;;;;;;;;;;;;;;16.37;50.26;100353.78;5064049;28;19924;-69
2021/05/18 15:33:51;;;;;;;;;;;;;;;16.31;51.03;100341.03;5068963;28;19955;-68
2021/05/18 15:36:18;;;;;;;;;;;;;;;15.99;51.88;100351.78;5050405;28;20155;-68
2021/05/18 15:38:47;;;;;;;;;;;;;;;16.18;55.91;100352.72;5043186;28;19955;-68
2021/05/18 15:41:14;;;;;;;;;;;;;;;16.16;55.85;100357.31;5072331;28;19956;-68
2021/05/18 15:43:44;;;;;;;;;;;;;;;15.99;54.11;100359.75;5051718;28;20019;-67
2021/05/18 15:46:11;;;;;;;;;;;;;;;15.67;55.10;100353.56;5064725;28;19924;-68
2021/05/18 15:48:38;;;;;;;;;;;;;;;15.69;54.57;100362.22;5050567;28;19961;-68
2021/05/18 15:51:06;;;;;;;;;;;;;;;15.67;54.40;100360.69;5031915;28;20045;-67
2021/05/18 15:53:33;;;;;;;;;;;;;;;15.45;55.05;100361.63;5047003;28;20039;-68
2021/05/18 15:56:00;;;;;;;;;;;;;;;15.16;55.91;100356.88;5048752;28;19940;-67
2021/05/18 15:58:27;;;;;;;;;;;;;;;15.31;56.01;100349.50;5069478;28;19968;-70
2021/05/18 16:00:54;;;;;;;;;;;;;;;15.25;56.06;100355.28;5049662;28;20259;-67
2021/05/18 16:03:21;;;;;;;;;;;;;;;15.40;56.57;100353.16;5067434;28;20192;-68
2021/05/18 16:05:49;;;;;;;;;;;;;;;15.51;56.16;100357.59;5049011;28;19956;-67
2021/05/18 16:10:55;;;;;;;;;;;;;;;15.11;55.58;100353.78;5068467;28;19931;-67
2021/05/18 16:13:22;;;;;;;;;;;;;;;15.37;56.33;100358.75;5050666;28;19924;-67
2021/05/18 16:15:49;;;;;;;;;;;;;;;15.48;55.76;100360.50;5082165;28;20035;-70
2021/05/18 16:18:17;;;;;;;;;;;;;;;15.18;55.43;100362.09;5056666;28;20378;-67
2021/05/18 16:20:44;;;;;;;;;;;;;;;15.32;55.71;100363.59;5045016;28;19934;-68
2021/05/18 16:23:14;;;;;;;;;;;;;;;15.49;55.04;100352.44;5047806;28;19940;-68
2021/05/18 16:25:41;;;;;;;;;;;;;;;15.37;55.07;100359.59;5063284;28;19936;-66
2021/05/18 16:28:08;;;;;;;;;;;;;;;15.52;55.11;100359.28;5067255;28;20024;-67
2021/05/18 16:30:35;;;;;;;;;;;;;;;15.49;55.62;100365.69;5047077;28;20028;-72
2021/05/18 16:33:02;;;;;;;;;;;;;;;15.59;55.48;100356.00;5060607;28;19939;-69
2021/05/18 16:35:30;;;;;;;;;;;;;;;15.52;55.19;100364.59;5047760;28;19943;-67
2021/05/18 16:37:56;;;;;;;;;;;;;;;15.55;53.99;100357.22;5065398;28;19920;-68
2021/05/18 16:40:24;;;;;;;;;;;;;;;15.50;54.03;100364.72;5047943;28;20043;-67
2021/05/18 16:42:51;;;;;;;;;;;;;;;15.19;53.59;100364.59;5060651;28;19928;-67
2021/05/18 16:45:18;;;;;;;;;;;;;;;15.32;53.65;100374.22;5066471;28;20677;-67
2021/05/18 16:47:45;;;;;;;;;;;;;;;15.38;53.11;100374.53;5064612;28;19928;-68
2021/05/18 16:50:12;;;;;;;;;;;;;;;15.38;53.59;100379.00;5068990;28;19924;-69
2021/05/18 16:52:39;;;;;;;;;;;;;;;15.14;54.91;100377.41;5040185;28;20362;-67
2021/05/18 16:55:07;;;;;;;;;;;;;;;15.41;54.56;100378.75;5049498;28;19955;-68
2021/05/18 16:57:34;;;;;;;;;;;;;;;15.49;54.51;100376.31;5056148;22;19970;-69
2021/05/18 17:00:03;;;;;;;;;;;;;;;15.45;54.69;100381.03;5032267;28;19982;-71
2021/05/18 17:02:32;;;;;;;;;;;;;;;15.48;54.82;100376.41;5021911;28;20004;-70
2021/05/18 17:04:59;;;;;;;;;;;;;;;15.44;56.73;100384.66;5035928;28;20067;-68
2021/05/18 17:07:26;;;;;;;;;;;;;;;15.39;54.79;100381.50;5042555;28;19990;-68
2021/05/18 17:09:53;;;;;;;;;;;;;;;15.25;54.70;100391.59;5042927;28;20496;-69
2021/05/18 17:12:21;;;;;;;;;;;;;;;14.84;54.13;100388.69;5028224;28;20031;-69
2021/05/18 17:14:48;;;;;;;;;;;;;;;14.80;54.74;100389.03;5050416;28;19956;-69
2021/05/18 17:17:15;;;;;;;;;;;;;;;14.89;54.81;100397.09;5044188;28;19921;-70
2021/05/18 17:19:43;;;;;;;;;;;;;;;15.00;54.68;100392.75;5043061;28;20007;-69